createdAt,value
2022-08-12T00:00:48.972Z,84.30
2022-08-12T00:02:03.610Z,85.52
2022-08-12T00:02:49.997Z,85.36
2022-08-12T00:03:48.923Z,85.46
2022-08-12T00:04:49.925Z,86.63
2022-08-12T00:06:00.452Z,86.47
2022-08-12T00:06:49.932Z,85.96
2022-08-12T00:07:48.895Z,84.55
2022-08-12T00:08:48.883Z,84.44
2022-08-12T00:09:49.371Z,84.10
2022-08-12T00:10:48.870Z,84.30
2022-08-12T00:11:49.090Z,84.30
2022-08-12T00:12:49.084Z,84.00
2022-08-12T00:13:49.066Z,84.50
2022-08-12T00:14:49.097Z,84.10
2022-08-12T00:15:49.004Z,83.90
2022-08-12T00:16:49.112Z,84.50
2022-08-12T00:17:49.019Z,84.91
2022-08-12T00:18:49.024Z,84.95
2022-08-12T00:19:48.966Z,84.95
2022-08-12T00:20:49.035Z,85.11
2022-08-12T00:21:48.802Z,85.05
2022-08-12T00:22:58.804Z,84.34
2022-08-12T00:23:49.758Z,85.15
2022-08-12T00:24:48.771Z,85.15
2022-08-12T00:26:18.992Z,85.86
2022-08-12T00:26:49.757Z,86.98
2022-08-12T00:27:48.729Z,85.76
2022-08-12T00:28:48.715Z,85.86
2022-08-12T00:29:49.706Z,85.46
2022-08-12T00:30:48.699Z,85.25
2022-08-12T00:31:48.728Z,86.10
2022-08-12T00:32:54.919Z,86.91
2022-08-12T00:33:52.483Z,86.82
2022-08-12T00:34:49.485Z,85.66
2022-08-12T00:35:48.646Z,85.76
2022-08-12T00:36:50.151Z,85.76
2022-08-12T00:37:48.661Z,85.76
2022-08-12T00:38:48.642Z,85.25
2022-08-12T00:39:48.733Z,85.46
2022-08-12T00:40:48.603Z,85.15
2022-08-12T00:41:48.641Z,84.78
2022-08-12T00:42:48.591Z,85.90
2022-08-12T00:43:48.586Z,85.70
2022-08-12T00:44:48.586Z,85.39
2022-08-12T00:45:48.575Z,85.60
2022-08-12T00:47:25.024Z,86.71
2022-08-12T00:47:49.553Z,86.61
2022-08-12T00:48:48.548Z,86.55
2022-08-12T00:49:50.368Z,87.16
2022-08-12T00:50:48.531Z,88.28
2022-08-12T00:51:48.523Z,88.58
2022-08-12T00:52:48.540Z,88.68
2022-08-12T00:53:48.496Z,88.58
2022-08-12T00:54:48.493Z,88.68
2022-08-12T00:55:48.489Z,89.13
2022-08-12T00:56:48.466Z,89.03
2022-08-12T00:57:48.529Z,88.62
2022-08-12T00:58:48.458Z,88.52
2022-08-12T00:59:48.450Z,88.42
2022-08-12T01:00:48.454Z,88.32
2022-08-12T01:02:00.974Z,88.73
2022-08-12T01:02:49.457Z,88.42
2022-08-12T01:03:48.420Z,89.03
2022-08-12T01:04:48.403Z,88.73
2022-08-12T01:05:48.409Z,88.42
2022-08-12T01:06:50.918Z,88.93
2022-08-12T01:07:49.409Z,88.82
2022-08-12T01:08:48.365Z,88.62
2022-08-12T01:09:48.368Z,89.33
2022-08-12T01:10:48.357Z,88.52
2022-08-12T01:11:48.341Z,90.09
2022-08-12T01:12:48.359Z,90.25
2022-08-12T01:13:48.332Z,89.48
2022-08-12T01:14:48.322Z,90.49
2022-08-12T01:15:48.316Z,91.00
2022-08-12T01:16:48.302Z,90.25
2022-08-12T01:17:48.321Z,90.70
2022-08-12T01:18:48.287Z,90.39
2022-08-12T01:19:49.270Z,90.05
2022-08-12T01:20:48.276Z,89.58
2022-08-12T01:21:48.285Z,88.93
2022-08-12T01:22:48.279Z,89.28
2022-08-12T01:23:48.251Z,89.78
2022-08-12T01:24:48.252Z,90.09
2022-08-12T01:25:56.146Z,90.29
2022-08-12T01:26:49.222Z,90.09
2022-08-12T01:27:48.253Z,90.09
2022-08-12T01:28:48.206Z,89.88
2022-08-12T01:29:48.200Z,89.83
2022-08-12T01:30:48.195Z,90.23
2022-08-12T01:31:48.179Z,89.48
2022-08-12T01:32:48.543Z,90.84
2022-08-12T01:33:48.165Z,91.45
2022-08-12T01:34:48.155Z,91.41
2022-08-12T01:35:57.873Z,90.74
2022-08-12T01:36:49.134Z,90.74
2022-08-12T01:37:48.127Z,91.05
2022-08-12T01:38:48.154Z,90.53
2022-08-12T01:40:34.914Z,91.14
2022-08-12T01:40:49.222Z,91.14
2022-08-12T01:41:53.576Z,91.80
2022-08-12T01:42:49.088Z,91.60
2022-08-12T01:43:48.113Z,92.21
2022-08-12T01:44:48.075Z,92.26
2022-08-12T01:45:48.065Z,92.21
2022-08-12T01:46:48.141Z,91.05
2022-08-12T01:47:48.050Z,92.00
2022-08-12T01:48:48.062Z,92.41
2022-08-12T01:49:48.031Z,92.71
2022-08-12T01:50:48.021Z,92.21
2022-08-12T01:52:21.551Z,91.90
2022-08-12T01:52:49.000Z,92.30
2022-08-12T01:53:48.728Z,92.00
2022-08-12T01:54:47.989Z,92.14
2022-08-12T01:55:47.976Z,92.41
2022-08-12T01:56:47.963Z,92.00
2022-08-12T01:57:59.656Z,91.60
2022-08-12T01:58:48.987Z,92.00
2022-08-12T01:59:47.941Z,92.25
2022-08-12T02:00:54.960Z,92.45
2022-08-12T02:01:48.999Z,93.26
2022-08-12T02:02:47.920Z,92.55
2022-08-12T02:03:47.936Z,93.16
2022-08-12T02:04:47.896Z,92.65
2022-08-12T02:05:47.885Z,93.67
2022-08-12T02:06:47.884Z,93.10
2022-08-12T02:07:47.870Z,93.21
2022-08-12T02:08:47.897Z,92.86
2022-08-12T02:09:47.859Z,92.65
2022-08-12T02:10:49.958Z,91.94
2022-08-12T02:11:47.839Z,92.55
2022-08-12T02:12:47.870Z,92.45
2022-08-12T02:13:49.321Z,92.45
2022-08-12T02:14:47.818Z,92.45
2022-08-12T02:15:47.807Z,91.74
2022-08-12T02:16:47.801Z,91.53
2022-08-12T02:17:56.286Z,92.14
2022-08-12T02:18:48.811Z,91.27
2022-08-12T02:19:47.784Z,91.74
2022-08-12T02:20:52.462Z,91.03
2022-08-12T02:21:48.767Z,91.64
2022-08-12T02:22:47.769Z,91.23
2022-08-12T02:23:47.769Z,92.09
2022-08-12T02:24:47.729Z,92.45
2022-08-12T02:25:47.725Z,91.88
2022-08-12T02:26:47.717Z,92.19
2022-08-12T02:27:47.720Z,92.70
2022-08-12T02:28:47.724Z,92.29
2022-08-12T02:29:47.684Z,93.21
2022-08-12T02:30:47.675Z,93.01
2022-08-12T02:31:47.727Z,93.51
2022-08-12T02:32:47.694Z,93.31
2022-08-12T02:33:47.767Z,93.31
2022-08-12T02:34:47.656Z,94.32
2022-08-12T02:35:47.680Z,94.32
2022-08-12T02:36:47.648Z,94.53
2022-08-12T02:37:47.675Z,94.32
2022-08-12T02:38:47.644Z,94.12
2022-08-12T02:39:47.641Z,93.71
2022-08-12T02:40:47.585Z,94.43
2022-08-12T02:41:47.585Z,94.17
2022-08-12T02:42:47.638Z,94.84
2022-08-12T02:43:47.594Z,94.12
2022-08-12T02:44:47.571Z,94.27
2022-08-12T02:45:47.561Z,94.88
2022-08-12T02:46:47.540Z,95.59
2022-08-12T02:47:57.143Z,95.18
2022-08-12T02:48:48.550Z,94.57
2022-08-12T02:49:47.568Z,94.68
2022-08-12T02:50:47.528Z,94.98
2022-08-12T02:51:47.526Z,94.88
2022-08-12T02:52:47.490Z,94.88
2022-08-12T02:54:03.320Z,95.29
2022-08-12T02:54:48.505Z,94.88
2022-08-12T02:55:47.473Z,95.59
2022-08-12T02:56:50.770Z,95.43
2022-08-12T02:57:47.454Z,96.25
2022-08-12T02:58:47.479Z,95.64
2022-08-12T02:59:47.431Z,95.03
2022-08-12T03:00:47.530Z,96.15
2022-08-12T03:01:47.602Z,95.23
2022-08-12T03:02:47.402Z,95.13
2022-08-12T03:03:47.420Z,95.33
2022-08-12T03:04:47.393Z,95.13
2022-08-12T03:05:47.385Z,96.25
2022-08-12T03:06:47.390Z,96.66
2022-08-12T03:07:59.840Z,95.64
2022-08-12T03:08:51.832Z,96.45
2022-08-12T03:10:05.348Z,96.45
2022-08-12T03:10:48.411Z,96.15
2022-08-12T03:11:48.955Z,96.15
2022-08-12T03:12:49.318Z,95.23
2022-08-12T03:13:47.346Z,95.43
2022-08-12T03:14:47.317Z,96.55
2022-08-12T03:15:47.304Z,95.74
2022-08-12T03:16:47.284Z,95.53
2022-08-12T03:17:47.306Z,96.39
2022-08-12T03:18:48.325Z,96.66
2022-08-12T03:20:08.814Z,96.15
2022-08-12T03:20:48.257Z,95.37
2022-08-12T03:21:54.703Z,94.92
2022-08-12T03:22:48.260Z,95.03
2022-08-12T03:23:47.325Z,95.33
2022-08-12T03:24:47.225Z,95.33
2022-08-12T03:25:47.229Z,95.28
2022-08-12T03:26:47.204Z,95.23
2022-08-12T03:27:47.230Z,95.28
2022-08-12T03:28:47.320Z,95.89
2022-08-12T03:29:50.035Z,95.48
2022-08-12T03:30:47.177Z,95.43
2022-08-12T03:31:47.164Z,94.92
2022-08-12T03:32:47.406Z,94.62
2022-08-12T03:34:02.385Z,95.03
2022-08-12T03:34:48.182Z,94.92
2022-08-12T03:35:47.154Z,95.13
2022-08-12T03:36:47.167Z,95.33
2022-08-12T03:37:47.100Z,95.53
2022-08-12T03:38:47.190Z,95.17
2022-08-12T03:39:47.219Z,95.33
2022-08-12T03:40:47.111Z,94.87
2022-08-12T03:41:47.099Z,95.17
2022-08-12T03:42:47.088Z,95.21
2022-08-12T03:43:47.095Z,95.37
2022-08-12T03:44:47.135Z,95.78
2022-08-12T03:45:52.338Z,96.30
2022-08-12T03:46:48.055Z,96.70
2022-08-12T03:47:47.035Z,96.23
2022-08-12T03:48:47.032Z,96.64
2022-08-12T03:49:47.052Z,96.19
2022-08-12T03:50:47.057Z,96.14
2022-08-12T03:51:46.993Z,96.30
2022-08-12T03:52:46.979Z,96.84
2022-08-12T03:53:46.997Z,96.60
2022-08-12T03:54:47.053Z,96.54
2022-08-12T03:55:46.956Z,96.34
2022-08-12T03:56:46.938Z,96.44
2022-08-12T03:57:48.566Z,96.75
2022-08-12T03:58:46.925Z,96.14
2022-08-12T03:59:46.951Z,96.84
2022-08-12T04:00:47.010Z,96.64
2022-08-12T04:01:46.895Z,96.95
2022-08-12T04:02:47.896Z,96.75
2022-08-12T04:03:46.888Z,97.25
2022-08-12T04:04:46.910Z,96.84
2022-08-12T04:05:54.698Z,96.64
2022-08-12T04:06:47.863Z,96.34
2022-08-12T04:07:56.340Z,96.54
2022-08-12T04:08:47.847Z,96.19
2022-08-12T04:09:46.859Z,96.60
2022-08-12T04:10:46.832Z,96.50
2022-08-12T04:11:47.281Z,96.60
2022-08-12T04:12:46.813Z,96.09
2022-08-12T04:13:46.800Z,96.60
2022-08-12T04:14:46.823Z,95.28
2022-08-12T04:15:46.780Z,94.97
2022-08-12T04:16:46.776Z,95.28
2022-08-12T04:18:07.329Z,95.28
2022-08-12T04:18:47.760Z,95.68
2022-08-12T04:19:46.779Z,95.58
2022-08-12T04:20:46.740Z,95.48
2022-08-12T04:22:02.180Z,95.74
2022-08-12T04:22:47.716Z,95.53
2022-08-12T04:23:48.681Z,95.39
2022-08-12T04:24:50.530Z,95.29
2022-08-12T04:25:46.701Z,94.23
2022-08-12T04:26:46.689Z,94.63
2022-08-12T04:27:46.690Z,93.87
2022-08-12T04:28:46.685Z,92.82
2022-08-12T04:30:21.193Z,92.36
2022-08-12T04:30:47.656Z,91.65
2022-08-12T04:31:46.654Z,90.74
2022-08-12T04:32:46.813Z,90.19
2022-08-12T04:33:47.634Z,90.35
2022-08-12T04:34:46.648Z,89.80
2022-08-12T04:35:46.619Z,88.99
2022-08-12T04:36:46.611Z,88.13
2022-08-12T04:37:58.094Z,87.12
2022-08-12T04:38:47.582Z,87.22
2022-08-12T04:39:46.665Z,87.63
2022-08-12T04:40:46.573Z,87.32
2022-08-12T04:41:56.067Z,86.83
2022-08-12T04:42:47.554Z,85.52
2022-08-12T04:44:00.206Z,84.70
2022-08-12T04:44:47.594Z,85.52
2022-08-12T04:45:46.531Z,85.58
2022-08-12T04:46:46.514Z,83.47
2022-08-12T04:47:46.516Z,82.56
2022-08-12T04:48:46.514Z,83.21
2022-08-12T04:49:46.530Z,83.78
2022-08-12T04:50:46.491Z,82.73
2022-08-12T04:51:57.597Z,81.62
2022-08-12T04:52:47.467Z,81.48
2022-08-12T04:53:46.463Z,81.03
2022-08-12T04:54:46.486Z,80.08
2022-08-12T04:55:46.459Z,79.44
2022-08-12T04:57:04.887Z,80.19
2022-08-12T04:57:47.440Z,79.04
2022-08-12T04:58:50.628Z,79.14
2022-08-12T04:59:49.051Z,79.38
2022-08-12T05:00:46.423Z,79.24
2022-08-12T05:01:46.393Z,79.24
2022-08-12T05:02:46.460Z,79.44
2022-08-12T05:03:48.348Z,79.08
2022-08-12T05:04:46.427Z,79.17
2022-08-12T05:05:46.380Z,79.58
2022-08-12T05:06:46.366Z,78.50
2022-08-12T05:07:53.845Z,78.09
2022-08-12T05:08:47.332Z,78.42
2022-08-12T05:10:00.204Z,76.61
2022-08-12T05:10:47.337Z,76.71
2022-08-12T05:11:53.727Z,76.47
2022-08-12T05:12:47.383Z,76.07
2022-08-12T05:13:46.305Z,76.07
2022-08-12T05:14:46.337Z,75.20
2022-08-12T05:16:05.178Z,76.00
2022-08-12T05:16:48.278Z,75.87
2022-08-12T05:17:46.263Z,76.07
2022-08-12T05:18:46.253Z,74.58
2022-08-12T05:19:46.271Z,72.71
2022-08-12T05:20:46.234Z,72.30
2022-08-12T05:21:46.239Z,73.04
2022-08-12T05:22:46.220Z,72.67
2022-08-12T05:23:46.222Z,71.63
2022-08-12T05:24:46.234Z,71.33
2022-08-12T05:25:46.195Z,71.09
2022-08-12T05:26:46.185Z,70.56
2022-08-12T05:27:55.505Z,69.46
2022-08-12T05:28:47.165Z,69.99
2022-08-12T05:30:07.198Z,70.79
2022-08-12T05:30:47.149Z,71.33
2022-08-12T05:31:48.381Z,72.27
2022-08-12T05:32:46.137Z,72.50
2022-08-12T05:33:46.127Z,72.57
2022-08-12T05:34:46.152Z,72.37
2022-08-12T05:35:46.115Z,72.67
2022-08-12T05:36:46.106Z,71.63
2022-08-12T05:37:46.099Z,71.09
2022-08-12T05:38:46.097Z,70.46
2022-08-12T05:39:46.130Z,71.40
2022-08-12T05:40:46.068Z,71.36
2022-08-12T05:41:46.056Z,70.36
2022-08-12T05:42:46.399Z,70.16
2022-08-12T05:43:46.050Z,70.66
2022-08-12T05:44:46.067Z,70.36
2022-08-12T05:45:46.023Z,70.03
2022-08-12T05:46:46.020Z,69.62
2022-08-12T05:47:53.599Z,69.62
2022-08-12T05:48:46.999Z,69.09
2022-08-12T05:49:46.025Z,68.59
2022-08-12T05:50:45.986Z,67.19
2022-08-12T05:51:45.973Z,67.49
2022-08-12T05:52:45.964Z,66.59
2022-08-12T05:53:45.958Z,65.75
2022-08-12T05:54:56.968Z,65.72
2022-08-12T05:55:47.944Z,65.99
2022-08-12T05:56:45.933Z,64.56
2022-08-12T05:57:45.958Z,64.56
2022-08-12T05:58:45.930Z,64.69
2022-08-12T05:59:45.913Z,65.25
2022-08-12T06:00:45.940Z,66.19
2022-08-12T06:02:11.291Z,65.92
2022-08-12T06:02:46.955Z,65.96
2022-08-12T06:03:45.879Z,64.03
2022-08-12T06:04:45.881Z,64.59
2022-08-12T06:05:55.022Z,65.49
2022-08-12T06:06:46.848Z,65.29
2022-08-12T06:08:00.549Z,64.59
2022-08-12T06:08:46.833Z,64.63
2022-08-12T06:09:45.832Z,63.37
2022-08-12T06:10:45.842Z,61.91
2022-08-12T06:12:04.739Z,61.71
2022-08-12T06:12:46.790Z,63.47
2022-08-12T06:13:53.213Z,62.54
2022-08-12T06:14:46.787Z,62.59
2022-08-12T06:15:45.804Z,61.06
2022-08-12T06:16:45.771Z,61.41
2022-08-12T06:17:45.849Z,62.15
2022-08-12T06:18:45.745Z,62.64
2022-08-12T06:20:27.306Z,61.74
2022-08-12T06:20:46.775Z,62.45
2022-08-12T06:21:45.717Z,61.79
2022-08-12T06:22:45.708Z,61.91
2022-08-12T06:23:45.700Z,61.79
2022-08-12T06:24:45.704Z,62.08
2022-08-12T06:25:45.723Z,61.66
2022-08-12T06:26:45.682Z,60.53
2022-08-12T06:28:06.723Z,60.03
2022-08-12T06:28:46.659Z,58.78
2022-08-12T06:30:09.585Z,58.03
2022-08-12T06:31:08.189Z,57.76
2022-08-12T06:31:47.654Z,57.73
2022-08-12T06:33:04.354Z,57.26
2022-08-12T06:33:55.333Z,57.89
2022-08-12T06:35:25.358Z,57.73
2022-08-12T06:35:49.301Z,57.24
2022-08-12T06:36:45.598Z,57.24
2022-08-12T06:37:45.589Z,58.88
2022-08-12T06:38:46.577Z,59.68
2022-08-12T06:39:45.648Z,58.65
2022-08-12T06:40:45.597Z,57.81
2022-08-12T06:42:05.204Z,58.83
2022-08-12T06:42:46.940Z,59.05
2022-08-12T06:44:05.889Z,59.45
2022-08-12T06:44:46.537Z,58.36
2022-08-12T06:45:46.812Z,57.68
2022-08-12T06:46:45.514Z,57.06
2022-08-12T06:47:45.509Z,56.04
2022-08-12T06:48:45.497Z,56.01
2022-08-12T06:49:45.496Z,56.11
2022-08-12T06:50:45.778Z,55.49
2022-08-12T06:51:56.661Z,54.44
2022-08-12T06:52:46.584Z,53.80
2022-08-12T06:53:45.681Z,53.50
2022-08-12T06:54:45.457Z,54.22
2022-08-12T06:55:58.294Z,54.12
2022-08-12T06:57:03.454Z,53.63
2022-08-12T06:58:08.248Z,54.32
2022-08-12T06:58:46.417Z,55.46
2022-08-12T06:59:45.418Z,54.07
2022-08-12T07:00:45.461Z,55.13
2022-08-12T07:01:51.097Z,55.63
2022-08-12T07:02:46.380Z,55.33
2022-08-12T07:03:45.382Z,55.56
2022-08-12T07:04:45.380Z,53.97
2022-08-12T07:05:45.364Z,55.26
2022-08-12T07:06:45.389Z,54.84
2022-08-12T07:07:45.341Z,54.10
2022-08-12T07:08:45.350Z,54.22
2022-08-12T07:10:06.705Z,53.89
2022-08-12T07:10:46.327Z,53.64
2022-08-12T07:11:47.283Z,52.34
2022-08-12T07:12:46.325Z,53.12
2022-08-12T07:14:12.457Z,52.34
2022-08-12T07:14:48.925Z,52.53
2022-08-12T07:15:46.284Z,52.53
2022-08-12T07:16:45.301Z,53.22
2022-08-12T07:17:45.271Z,52.51
2022-08-12T07:18:45.264Z,52.56
2022-08-12T07:19:45.617Z,51.57
2022-08-12T07:20:53.345Z,50.24
2022-08-12T07:21:59.981Z,49.73
2022-08-12T07:22:46.229Z,49.99
2022-08-12T07:23:45.220Z,48.79
2022-08-12T07:24:45.212Z,48.96
2022-08-12T07:25:45.217Z,47.86
2022-08-12T07:26:45.217Z,47.93
2022-08-12T07:27:45.233Z,45.90
2022-08-12T07:28:45.174Z,46.86
2022-08-12T07:30:03.862Z,46.59
2022-08-12T07:30:46.158Z,45.12
2022-08-12T07:31:45.201Z,45.43
2022-08-12T07:32:45.149Z,45.56
2022-08-12T07:33:45.136Z,44.27
2022-08-12T07:34:45.141Z,43.77
2022-08-12T07:35:45.106Z,42.97
2022-08-12T07:36:45.138Z,40.23
2022-08-12T07:37:45.106Z,39.45
2022-08-12T07:38:45.093Z,40.43
2022-08-12T07:39:50.719Z,41.89
2022-08-12T07:40:46.078Z,40.62
2022-08-12T07:41:45.101Z,41.50
2022-08-12T07:42:45.061Z,41.71
2022-08-12T07:43:45.055Z,41.51
2022-08-12T07:44:45.042Z,41.68
2022-08-12T07:45:45.043Z,40.16
2022-08-12T07:46:45.064Z,41.15
2022-08-12T07:47:45.024Z,41.25
2022-08-12T07:48:45.017Z,39.37
2022-08-12T07:50:04.558Z,41.68
2022-08-12T07:50:46.000Z,41.45
2022-08-12T07:51:45.027Z,40.74
2022-08-12T07:52:44.981Z,41.90
2022-08-12T07:54:00.203Z,40.72
2022-08-12T07:54:45.985Z,41.47
2022-08-12T07:55:44.954Z,40.95
2022-08-12T07:56:44.985Z,40.23
2022-08-12T07:57:44.947Z,41.82
2022-08-12T07:58:47.154Z,41.29
2022-08-12T07:59:45.938Z,40.39
2022-08-12T08:00:44.918Z,40.47
2022-08-12T08:01:45.004Z,40.47
2022-08-12T08:02:44.910Z,40.23
2022-08-12T08:03:47.551Z,38.02
2022-08-12T08:04:44.904Z,38.10
2022-08-12T08:05:44.894Z,38.61
2022-08-12T08:06:44.907Z,38.14
2022-08-12T08:07:44.869Z,38.67
2022-08-12T08:08:44.872Z,37.12
2022-08-12T08:09:44.858Z,38.61
2022-08-12T08:10:44.861Z,39.27
2022-08-12T08:11:44.882Z,39.62
2022-08-12T08:12:44.845Z,38.96
2022-08-12T08:13:44.828Z,39.15
2022-08-12T08:14:44.822Z,39.54
2022-08-12T08:16:02.412Z,40.62
2022-08-12T08:16:46.852Z,39.66
2022-08-12T08:17:44.802Z,39.14
2022-08-12T08:18:44.809Z,39.15
2022-08-12T08:20:03.586Z,40.55
2022-08-12T08:20:45.788Z,39.62
2022-08-12T08:21:44.813Z,39.31
2022-08-12T08:22:44.864Z,38.18
2022-08-12T08:23:46.165Z,37.40
2022-08-12T08:24:44.755Z,37.19
2022-08-12T08:25:44.746Z,38.96
2022-08-12T08:26:44.757Z,39.31
2022-08-12T08:27:44.776Z,38.51
2022-08-12T08:28:44.726Z,38.16
2022-08-12T08:29:44.725Z,37.57
2022-08-12T08:30:44.737Z,38.09
2022-08-12T08:31:45.552Z,38.48
2022-08-12T08:32:45.720Z,37.29
2022-08-12T08:34:05.227Z,37.17
2022-08-12T08:34:54.228Z,37.40
2022-08-12T08:35:47.769Z,37.60
2022-08-12T08:36:44.722Z,36.65
2022-08-12T08:37:44.687Z,38.53
2022-08-12T08:38:44.648Z,38.51
2022-08-12T08:39:45.652Z,37.70
2022-08-12T08:40:44.634Z,38.04
2022-08-12T08:42:19.111Z,37.19
2022-08-12T08:42:50.806Z,36.96
2022-08-12T08:43:46.662Z,35.05
2022-08-12T08:44:44.615Z,35.42
2022-08-12T08:45:44.607Z,34.27
2022-08-12T08:46:44.708Z,35.71
2022-08-12T08:47:44.626Z,35.98
2022-08-12T08:48:44.584Z,35.80
2022-08-12T08:49:44.574Z,34.97
2022-08-12T08:50:44.574Z,35.31
2022-08-12T08:51:44.580Z,35.11
2022-08-12T08:52:44.587Z,34.43
2022-08-12T08:53:44.585Z,36.52
2022-08-12T08:54:45.540Z,37.85
2022-08-12T08:56:04.131Z,37.75
2022-08-12T08:56:46.621Z,38.76
2022-08-12T08:57:44.860Z,37.45
2022-08-12T08:58:45.507Z,38.35
2022-08-12T08:59:45.507Z,36.90
2022-08-12T09:00:49.434Z,37.45
2022-08-12T09:01:44.765Z,38.07
2022-08-12T09:02:49.196Z,38.43
2022-08-12T09:05:07.306Z,37.46
2022-08-12T09:05:13.906Z,37.86
2022-08-12T09:06:02.650Z,38.06
2022-08-12T09:06:53.819Z,37.73
2022-08-12T09:07:58.946Z,37.69
2022-08-12T09:08:46.472Z,35.68
2022-08-12T09:10:02.762Z,36.82
2022-08-12T09:10:45.830Z,37.84
2022-08-12T09:12:10.603Z,37.66
2022-08-12T09:12:45.415Z,36.96
2022-08-12T09:14:12.558Z,37.45
2022-08-12T09:16:45.412Z,36.76
2022-08-12T09:17:44.381Z,37.45
2022-08-12T09:18:44.399Z,37.02
2022-08-12T09:19:44.363Z,36.92
2022-08-12T09:20:44.365Z,37.33
2022-08-12T09:21:54.600Z,36.86
2022-08-12T09:22:49.063Z,37.45
2022-08-12T09:23:57.243Z,37.98
2022-08-12T09:24:45.327Z,38.06
2022-08-12T09:25:44.332Z,37.90
2022-08-12T09:30:10.971Z,38.40
2022-08-12T09:30:45.296Z,37.38
2022-08-12T09:32:07.856Z,37.94
2022-08-12T09:33:01.498Z,37.38
2022-08-12T09:34:25.212Z,38.92
2022-08-12T09:34:50.818Z,38.72
2022-08-12T09:35:46.218Z,38.40
2022-08-12T09:37:00.742Z,38.31
2022-08-12T09:37:58.241Z,37.42
2022-08-12T09:39:00.012Z,38.17
2022-08-12T09:40:01.828Z,37.35
2022-08-12T09:40:57.090Z,37.66
2022-08-12T09:42:08.449Z,36.84
2022-08-12T09:43:04.816Z,36.29
2022-08-12T09:43:53.339Z,36.83
2022-08-12T09:44:45.230Z,37.90
2022-08-12T09:46:06.559Z,38.29
2022-08-12T09:46:45.328Z,37.27
2022-08-12T09:47:45.177Z,37.15
2022-08-12T09:48:56.470Z,37.35
2022-08-12T09:49:45.153Z,37.45
2022-08-12T09:50:50.640Z,37.04
2022-08-12T09:51:45.157Z,37.07
2022-08-12T09:52:44.325Z,36.98
2022-08-12T09:53:44.185Z,38.32
2022-08-12T09:54:44.130Z,38.11
2022-08-12T09:56:56.914Z,38.66
2022-08-12T09:57:01.894Z,38.62
2022-08-12T09:58:46.234Z,38.21
2022-08-12T09:59:00.961Z,37.52
2022-08-12T10:00:15.014Z,37.04
2022-08-12T10:00:52.030Z,37.07
2022-08-12T10:02:43.021Z,37.27
2022-08-12T10:02:50.071Z,37.19
2022-08-12T10:04:02.968Z,37.82
2022-08-12T10:04:51.587Z,37.99
2022-08-12T10:06:19.886Z,38.06
2022-08-12T10:06:54.201Z,36.74
2022-08-12T10:07:45.022Z,35.53
2022-08-12T10:08:44.017Z,36.33
2022-08-12T10:09:58.432Z,37.45
2022-08-12T10:10:45.028Z,35.99
2022-08-12T10:12:10.148Z,38.01
2022-08-12T10:13:06.663Z,38.60
2022-08-12T10:13:45.016Z,37.99
2022-08-12T10:14:49.986Z,38.52
2022-08-12T10:16:02.773Z,38.42
2022-08-12T10:16:44.983Z,38.66
2022-08-12T10:18:05.948Z,37.43
2022-08-12T10:18:51.226Z,37.29
2022-08-12T10:19:51.618Z,37.39
2022-08-12T10:20:44.944Z,35.40
2022-08-12T10:21:43.921Z,35.87
2022-08-12T10:22:43.931Z,34.91
2022-08-12T10:23:45.933Z,36.25
2022-08-12T10:24:43.947Z,35.80
2022-08-12T10:26:34.686Z,37.81
2022-08-12T10:26:45.027Z,36.15
2022-08-12T10:28:03.636Z,34.75
2022-08-12T10:29:01.804Z,33.34
2022-08-12T10:30:03.908Z,33.36
2022-08-12T10:30:58.099Z,34.21
2022-08-12T10:32:19.458Z,35.65
2022-08-12T10:32:56.179Z,35.96
2022-08-12T10:34:04.903Z,35.06
2022-08-12T10:34:53.128Z,35.85
2022-08-12T10:35:44.814Z,35.24
2022-08-12T10:36:43.805Z,35.45
2022-08-12T10:38:37.134Z,35.49
2022-08-12T10:38:44.803Z,35.29
2022-08-12T10:40:00.801Z,35.68
2022-08-12T10:40:44.830Z,35.82
2022-08-12T10:41:58.310Z,36.03
2022-08-12T10:42:44.924Z,36.11
2022-08-12T10:43:55.922Z,35.39
2022-08-12T10:44:44.770Z,34.78
2022-08-12T10:45:43.761Z,35.00
2022-08-12T10:46:43.744Z,34.92
2022-08-12T10:48:07.795Z,35.82
2022-08-12T10:48:44.764Z,36.09
2022-08-12T10:50:02.381Z,35.31
2022-08-12T10:51:00.347Z,36.14
2022-08-12T10:52:03.180Z,34.96
2022-08-12T10:52:45.094Z,35.60
2022-08-12T10:53:46.316Z,35.97
2022-08-12T10:54:43.691Z,35.27
2022-08-12T10:55:44.696Z,36.22
2022-08-12T10:56:43.673Z,36.42
2022-08-12T10:58:13.423Z,36.09
2022-08-12T10:58:46.327Z,35.78
2022-08-12T11:00:30.697Z,36.29
2022-08-12T11:00:55.039Z,36.29
2022-08-12T11:04:17.079Z,35.19
2022-08-12T11:04:19.204Z,34.65
2022-08-12T11:04:25.226Z,34.44
2022-08-12T11:04:49.086Z,34.55
2022-08-12T11:07:05.820Z,34.98
2022-08-12T11:07:07.544Z,34.47
2022-08-12T11:08:37.583Z,35.89
2022-08-12T11:08:46.492Z,35.57
2022-08-12T11:10:00.134Z,35.65
2022-08-12T11:10:45.765Z,34.69
2022-08-12T11:12:35.370Z,34.39
2022-08-12T11:12:58.496Z,35.89
2022-08-12T11:13:48.324Z,35.68
2022-08-12T11:14:49.438Z,34.39
2022-08-12T11:16:19.419Z,35.66
2022-08-12T11:17:06.504Z,35.91
2022-08-12T11:17:53.712Z,35.83
2022-08-12T11:18:44.502Z,35.91
2022-08-12T11:19:43.534Z,35.27
2022-08-12T11:20:43.501Z,35.37
2022-08-12T11:21:57.794Z,34.65
2022-08-12T11:22:57.759Z,34.83
2022-08-12T11:23:44.469Z,34.72
2022-08-12T11:24:51.685Z,33.11
2022-08-12T11:25:57.972Z,33.43
2022-08-12T11:26:44.476Z,34.67
2022-08-12T11:27:43.706Z,34.16
2022-08-12T11:28:43.455Z,34.06
2022-08-12T11:30:02.046Z,34.45
2022-08-12T11:30:44.432Z,35.04
2022-08-12T11:32:01.970Z,34.39
2022-08-12T11:32:44.413Z,34.94
2022-08-12T11:34:05.475Z,34.62
2022-08-12T11:34:53.194Z,34.21
2022-08-12T11:35:44.395Z,34.21
2022-08-12T11:36:44.354Z,34.16
2022-08-12T11:37:55.875Z,34.81
2022-08-12T11:38:50.570Z,35.61
2022-08-12T11:40:44.322Z,34.97
2022-08-12T11:41:43.321Z,34.16
2022-08-12T11:42:46.943Z,34.63
2022-08-12T11:43:50.641Z,33.23
2022-08-12T11:44:44.514Z,33.26
2022-08-12T11:45:46.910Z,34.68
2022-08-12T11:46:43.291Z,35.71
2022-08-12T11:47:43.289Z,35.61
2022-08-12T11:48:52.387Z,35.61
2022-08-12T11:49:45.756Z,34.80
2022-08-12T11:50:44.336Z,35.91
2022-08-12T11:51:43.281Z,35.81
2022-08-12T11:52:56.848Z,34.93
2022-08-12T11:53:57.284Z,34.93
2022-08-12T11:54:51.142Z,34.74
2022-08-12T11:55:46.675Z,35.44
2022-08-12T11:56:59.042Z,35.44
2022-08-12T11:58:07.242Z,36.04
2022-08-12T12:01:59.150Z,35.64
2022-08-12T12:02:01.176Z,36.94
2022-08-12T12:02:44.254Z,34.34
2022-08-12T12:03:46.505Z,34.50
2022-08-12T12:04:43.211Z,35.06
2022-08-12T12:05:45.815Z,35.22
2022-08-12T12:06:43.161Z,35.73
2022-08-12T12:08:37.755Z,35.75
2022-08-12T12:08:49.780Z,35.73
2022-08-12T12:09:52.406Z,35.36
2022-08-12T12:10:44.138Z,33.56
2022-08-12T12:11:48.844Z,33.33
2022-08-12T12:12:49.809Z,33.64
2022-08-12T12:14:06.518Z,33.48
2022-08-12T12:14:44.129Z,34.61
2022-08-12T12:15:44.103Z,34.73
2022-08-12T12:16:48.303Z,35.06
2022-08-12T12:17:44.087Z,35.72
2022-08-12T12:18:43.080Z,34.91
2022-08-12T12:19:46.195Z,35.73
2022-08-12T12:20:43.068Z,36.35
2022-08-12T12:21:47.258Z,37.65
2022-08-12T12:22:44.117Z,37.74
2022-08-12T12:23:47.057Z,36.94
2022-08-12T12:24:43.074Z,36.27
2022-08-12T12:25:59.574Z,36.90
2022-08-12T12:26:44.023Z,35.01
2022-08-12T12:28:04.477Z,35.50
2022-08-12T12:28:54.422Z,35.61
2022-08-12T12:30:13.718Z,35.61
2022-08-12T12:30:54.689Z,36.47
2022-08-12T12:32:09.411Z,35.75
2022-08-12T12:32:53.305Z,36.45
2022-08-12T12:33:57.515Z,35.83
2022-08-12T12:35:13.467Z,35.24
2022-08-12T12:36:18.385Z,36.16
2022-08-12T12:36:43.959Z,36.20
2022-08-12T12:38:03.443Z,35.22
2022-08-12T12:38:44.936Z,35.81
2022-08-12T12:39:54.997Z,36.02
2022-08-12T12:40:44.175Z,35.47
2022-08-12T12:42:44.373Z,35.27
2022-08-12T12:42:57.941Z,36.35
2022-08-12T12:44:04.127Z,35.80
2022-08-12T12:44:53.542Z,35.74
2022-08-12T12:45:44.293Z,35.89
2022-08-12T12:46:44.644Z,35.80
2022-08-12T12:47:42.904Z,35.37
2022-08-12T12:48:44.762Z,34.59
2022-08-12T12:49:43.896Z,35.34
2022-08-12T12:50:45.726Z,34.83
2022-08-12T12:51:56.383Z,34.72
2022-08-12T12:52:43.849Z,35.03
2022-08-12T12:54:08.747Z,33.25
2022-08-12T12:54:43.864Z,33.34
2022-08-12T12:55:42.822Z,33.46
2022-08-12T12:56:43.164Z,34.16
2022-08-12T12:58:00.612Z,35.19
2022-08-12T12:58:43.937Z,35.78
2022-08-12T12:59:56.823Z,34.10
2022-08-12T13:00:51.097Z,35.33